createdAt,value
2018-10-05T00:00:10.606Z,6.50
2018-10-05T00:02:39.052Z,6.50
2018-10-05T00:05:07.635Z,6.50
2018-10-05T00:07:36.100Z,6.50
2018-10-05T00:10:04.718Z,6.50
2018-10-05T00:15:03.385Z,6.40
2018-10-05T00:20:00.489Z,6.30
2018-10-05T00:22:28.912Z,6.20
2018-10-05T00:24:57.323Z,6.20
2018-10-05T00:27:25.794Z,6.20
2018-10-05T00:29:54.245Z,6.10
2018-10-05T00:34:51.291Z,6.10
2018-10-05T00:37:19.822Z,6.00
2018-10-05T00:39:48.783Z,6.00
2018-10-05T00:42:18.382Z,6.00
2018-10-05T00:52:11.112Z,5.70
2018-10-05T00:54:39.552Z,5.70
2018-10-05T00:57:08.056Z,5.70
2018-10-05T00:59:36.472Z,5.70
2018-10-05T01:02:04.899Z,5.70
2018-10-05T01:04:33.309Z,5.70
2018-10-05T01:07:01.812Z,5.60
2018-10-05T01:09:30.281Z,5.70
2018-10-05T01:11:58.713Z,5.70
2018-10-05T01:14:27.167Z,5.70
2018-10-05T01:16:55.616Z,5.70
2018-10-05T01:19:24.044Z,5.70
2018-10-05T01:26:48.896Z,5.70
2018-10-05T01:29:18.253Z,5.70
2018-10-05T01:31:46.721Z,5.60
2018-10-05T01:34:15.161Z,5.60
2018-10-05T01:36:43.596Z,5.60
2018-10-05T01:39:12.030Z,5.60
2018-10-05T01:41:40.659Z,5.60
2018-10-05T01:44:09.365Z,5.50
2018-10-05T01:46:37.785Z,5.40
2018-10-05T01:49:06.216Z,5.40
2018-10-05T01:51:36.766Z,5.40
2018-10-05T01:54:06.011Z,5.30
2018-10-05T01:56:36.345Z,5.30
2018-10-05T01:59:05.948Z,5.40
2018-10-05T02:01:34.428Z,5.50
2018-10-05T02:04:02.906Z,5.50
2018-10-05T02:06:31.370Z,5.40
2018-10-05T02:11:28.026Z,5.40
2018-10-05T02:16:24.581Z,5.40
2018-10-05T02:18:53.029Z,5.40
2018-10-05T02:21:21.937Z,5.40
2018-10-05T02:23:50.473Z,5.40
2018-10-05T02:26:18.896Z,5.40
2018-10-05T02:28:47.444Z,5.30
2018-10-05T02:31:16.277Z,5.30
2018-10-05T02:33:44.757Z,5.30
2018-10-05T02:36:13.254Z,5.20
2018-10-05T02:38:42.042Z,5.20
2018-10-05T02:41:10.486Z,5.10
2018-10-05T02:43:38.897Z,5.10
2018-10-05T02:46:07.317Z,5.10
2018-10-05T02:48:35.744Z,5.10
2018-10-05T02:51:04.177Z,5.10
2018-10-05T02:53:32.735Z,5.00
2018-10-05T02:56:01.148Z,5.00
2018-10-05T02:58:30.861Z,5.00
2018-10-05T03:01:10.846Z,5.10
2018-10-05T03:03:39.288Z,5.00
2018-10-05T03:06:07.993Z,4.90
2018-10-05T03:08:36.382Z,4.90
2018-10-05T03:11:04.810Z,4.90
2018-10-05T03:18:29.446Z,4.80
2018-10-05T03:24:19.960Z,4.80
2018-10-05T03:29:16.928Z,4.80
2018-10-05T03:31:45.348Z,4.80
2018-10-05T03:34:13.769Z,4.80
2018-10-05T03:36:42.149Z,4.80
2018-10-05T03:41:38.676Z,4.80
2018-10-05T03:49:03.440Z,4.70
2018-10-05T03:51:31.844Z,4.80
2018-10-05T03:56:28.545Z,4.70
2018-10-05T03:58:56.941Z,4.70
2018-10-05T04:01:25.405Z,4.70
2018-10-05T04:03:54.777Z,4.70
2018-10-05T04:08:51.492Z,4.70
2018-10-05T04:13:49.457Z,4.60
2018-10-05T04:18:46.033Z,4.60
2018-10-05T04:21:14.445Z,4.60
2018-10-05T04:23:43.038Z,4.60
2018-10-05T04:28:39.549Z,4.60
2018-10-05T04:31:07.964Z,4.60
2018-10-05T04:33:36.384Z,4.50
2018-10-05T04:36:04.796Z,4.50
2018-10-05T04:38:33.176Z,4.50
2018-10-05T04:41:01.638Z,4.40
2018-10-05T04:43:30.070Z,4.40
2018-10-05T04:45:59.075Z,4.40
2018-10-05T04:48:27.769Z,4.40
2018-10-05T04:50:56.180Z,4.40
2018-10-05T04:53:24.809Z,4.40
2018-10-05T04:55:53.378Z,4.40
2018-10-05T04:58:21.769Z,4.40
2018-10-05T05:00:50.325Z,4.30
2018-10-05T05:03:18.733Z,4.30
2018-10-05T05:05:47.205Z,4.30
2018-10-05T05:08:15.607Z,4.30
2018-10-05T05:10:44.017Z,4.30
2018-10-05T05:15:40.560Z,4.20
2018-10-05T05:20:37.132Z,4.10
2018-10-05T05:23:05.536Z,4.10
2018-10-05T05:28:02.129Z,4.10
2018-10-05T05:32:58.628Z,4.20
2018-10-05T05:37:55.213Z,4.30
2018-10-05T05:40:23.710Z,4.30
2018-10-05T05:45:20.142Z,4.30
2018-10-05T05:47:48.540Z,4.30
2018-10-05T05:50:17.029Z,4.30
2018-10-05T05:57:41.696Z,4.60
2018-10-05T06:00:10.116Z,4.70
2018-10-05T06:02:38.541Z,4.80
2018-10-05T06:07:35.157Z,5.20
2018-10-05T06:14:59.924Z,5.70
2018-10-05T06:17:28.364Z,6.20
2018-10-05T06:22:25.166Z,9.30
2018-10-05T06:27:21.509Z,13.10
2018-10-05T06:29:50.213Z,14.80
2018-10-05T06:32:18.626Z,16.30
2018-10-05T06:37:15.285Z,18.40
2018-10-05T06:42:11.970Z,19.50
2018-10-05T06:44:40.684Z,19.60
2018-10-05T06:47:09.100Z,20.40
2018-10-05T06:49:37.701Z,20.70
2018-10-05T06:52:06.116Z,21.00
2018-10-05T06:54:34.542Z,20.30
2018-10-05T06:57:02.953Z,19.80
2018-10-05T06:59:31.332Z,19.00
2018-10-05T07:01:59.783Z,17.90
2018-10-05T07:04:28.180Z,17.30
2018-10-05T07:06:56.592Z,16.30
2018-10-05T07:09:24.974Z,15.90
2018-10-05T07:11:53.406Z,15.20
2018-10-05T07:14:22.053Z,14.70
2018-10-05T07:16:50.589Z,14.50
2018-10-05T07:19:18.956Z,14.00
2018-10-05T07:21:47.481Z,14.00
2018-10-05T07:24:15.877Z,14.40
2018-10-05T07:26:44.322Z,14.50
2018-10-05T07:29:12.741Z,14.20
2018-10-05T07:31:41.173Z,13.60
2018-10-05T07:34:09.699Z,13.10
2018-10-05T07:36:38.137Z,12.90
2018-10-05T07:39:08.409Z,13.00
2018-10-05T07:41:36.833Z,13.10
2018-10-05T07:44:05.269Z,13.20
2018-10-05T07:46:33.705Z,13.10
2018-10-05T07:49:02.185Z,13.20
2018-10-05T07:51:30.598Z,13.30
2018-10-05T07:53:59.181Z,13.60
2018-10-05T07:56:27.609Z,13.90
2018-10-05T07:58:56.068Z,14.20
2018-10-05T08:01:24.498Z,14.30
2018-10-05T08:03:52.926Z,14.30
2018-10-05T08:06:21.313Z,14.10
2018-10-05T08:08:49.761Z,14.20
2018-10-05T08:11:18.157Z,14.30
2018-10-05T08:13:46.697Z,14.40
2018-10-05T08:16:15.097Z,14.50
2018-10-05T08:18:43.537Z,14.60
2018-10-05T08:21:11.974Z,14.70
2018-10-05T08:23:40.389Z,15.00
2018-10-05T08:26:08.803Z,15.30
2018-10-05T08:28:37.486Z,15.70
2018-10-05T08:31:05.960Z,16.10
2018-10-05T08:33:34.384Z,16.60
2018-10-05T08:36:02.769Z,16.80
2018-10-05T08:38:31.169Z,17.20
2018-10-05T08:40:59.579Z,18.00
2018-10-05T08:45:56.225Z,19.40
2018-10-05T08:48:24.577Z,20.00
2018-10-05T08:50:52.956Z,20.80
2018-10-05T08:53:21.385Z,21.10
2018-10-05T08:55:49.972Z,20.40
2018-10-05T08:58:18.401Z,20.10
2018-10-05T09:00:46.924Z,20.30
2018-10-05T09:03:15.298Z,20.50
2018-10-05T09:05:43.758Z,20.70
2018-10-05T09:08:12.257Z,20.70
2018-10-05T09:10:40.684Z,21.20
2018-10-05T09:13:09.063Z,21.60
2018-10-05T09:18:05.676Z,22.70
2018-10-05T09:20:34.103Z,23.50
2018-10-05T09:23:02.521Z,23.90
2018-10-05T09:25:30.957Z,24.80
2018-10-05T09:27:59.395Z,26.10
2018-10-05T09:30:27.825Z,27.10
2018-10-05T09:32:56.225Z,28.20
2018-10-05T09:35:24.665Z,29.00
2018-10-05T09:37:53.542Z,29.30
2018-10-05T09:42:50.017Z,31.40
2018-10-05T09:45:18.918Z,32.70
2018-10-05T09:50:15.723Z,32.90
2018-10-05T09:52:54.422Z,33.70
2018-10-05T09:55:22.850Z,33.70
2018-10-05T09:57:51.790Z,34.60
2018-10-05T10:00:25.529Z,33.60
2018-10-05T10:02:59.392Z,32.90
2018-10-05T10:05:27.976Z,33.20
2018-10-05T10:07:56.511Z,33.20
2018-10-05T10:10:24.921Z,34.00
2018-10-05T10:12:53.713Z,34.20
2018-10-05T10:15:22.278Z,34.40
2018-10-05T10:17:50.708Z,34.20
2018-10-05T10:20:19.173Z,33.70
2018-10-05T10:22:47.687Z,32.60
2018-10-05T10:25:16.067Z,31.40
2018-10-05T10:27:53.312Z,31.50
2018-10-05T10:30:21.722Z,31.90
2018-10-05T10:32:50.125Z,32.30
2018-10-05T10:35:18.548Z,31.80
2018-10-05T10:37:47.056Z,31.80
2018-10-05T10:40:15.492Z,31.60
2018-10-05T10:42:43.955Z,32.30
2018-10-05T10:45:12.333Z,32.20
2018-10-05T10:47:40.750Z,30.00
2018-10-05T10:50:09.218Z,30.10
2018-10-05T10:52:37.721Z,29.30
2018-10-05T10:55:06.443Z,27.70
2018-10-05T10:57:34.868Z,26.30
2018-10-05T11:00:03.340Z,24.70
2018-10-05T11:02:31.796Z,23.10
2018-10-05T11:05:00.218Z,22.20
2018-10-05T11:07:28.783Z,21.60
2018-10-05T11:09:57.165Z,21.00
2018-10-05T11:12:25.580Z,20.30
2018-10-05T11:14:53.982Z,19.80
2018-10-05T11:24:46.867Z,19.70
2018-10-05T11:27:15.297Z,19.70
2018-10-05T11:29:43.817Z,19.70
2018-10-05T11:32:12.264Z,19.60
2018-10-05T11:37:09.157Z,19.30
2018-10-05T11:39:37.849Z,19.30
2018-10-05T11:42:06.581Z,19.40
2018-10-05T11:44:35.022Z,19.50
2018-10-05T11:47:03.745Z,19.70
2018-10-05T11:54:30.046Z,19.60
2018-10-05T11:59:26.726Z,19.60
2018-10-05T12:04:23.912Z,19.70
2018-10-05T12:11:50.073Z,19.50
2018-10-05T12:14:18.500Z,19.40
2018-10-05T12:21:43.587Z,19.60
2018-10-05T12:24:12.206Z,19.60
2018-10-05T12:29:09.580Z,19.70
2018-10-05T12:36:34.462Z,19.70
2018-10-05T12:41:31.398Z,19.70
2018-10-05T12:43:59.849Z,19.70
2018-10-05T12:46:28.665Z,19.80
2018-10-05T12:48:57.120Z,19.70
2018-10-05T12:53:54.085Z,19.70
2018-10-05T12:56:22.533Z,19.80
2018-10-05T12:58:51.109Z,19.80
2018-10-05T13:01:19.581Z,19.80
2018-10-05T13:03:48.096Z,19.70
2018-10-05T13:06:16.513Z,19.80
2018-10-05T13:08:46.569Z,19.70
2018-10-05T13:13:43.117Z,19.80
2018-10-05T13:16:11.581Z,19.80
2018-10-05T13:18:40.744Z,19.80
2018-10-05T13:26:05.809Z,19.60
2018-10-05T13:28:34.347Z,19.70
2018-10-05T13:31:02.761Z,19.70
2018-10-05T13:33:31.358Z,19.70
2018-10-05T13:35:59.775Z,19.60
2018-10-05T13:38:28.218Z,19.60
2018-10-05T13:40:56.653Z,19.70
2018-10-05T13:45:53.456Z,19.50
2018-10-05T13:48:22.570Z,19.50
2018-10-05T13:53:20.300Z,19.70
2018-10-05T13:55:48.882Z,19.80
2018-10-05T13:58:17.344Z,19.80
2018-10-05T14:00:45.764Z,19.80
2018-10-05T14:03:14.172Z,19.80
2018-10-05T14:05:42.671Z,19.80
2018-10-05T14:08:11.108Z,19.70
2018-10-05T14:10:39.889Z,19.60
2018-10-05T14:13:08.478Z,19.60
2018-10-05T14:15:37.482Z,19.60
2018-10-05T14:18:05.992Z,19.60
2018-10-05T14:20:35.170Z,19.60
2018-10-05T14:23:04.137Z,19.60
2018-10-05T14:25:32.755Z,19.60
2018-10-05T14:28:01.272Z,19.60
2018-10-05T14:30:29.753Z,19.50
2018-10-05T14:32:58.218Z,19.50
2018-10-05T14:35:26.709Z,19.50
2018-10-05T14:37:55.146Z,19.40
2018-10-05T14:40:23.654Z,19.40
2018-10-05T14:42:52.812Z,19.40
2018-10-05T14:45:21.228Z,19.20
2018-10-05T14:47:50.155Z,19.20
2018-10-05T14:50:18.721Z,19.10
2018-10-05T14:52:47.572Z,19.20
2018-10-05T14:57:44.122Z,19.10
2018-10-05T15:00:12.646Z,19.10
2018-10-05T15:02:41.257Z,19.10
2018-10-05T15:05:09.737Z,19.00
2018-10-05T15:07:39.110Z,18.90
2018-10-05T15:12:37.018Z,18.90
2018-10-05T15:15:06.329Z,18.90
2018-10-05T15:17:34.773Z,18.80
2018-10-05T15:20:03.249Z,18.70
2018-10-05T15:22:31.768Z,18.60
2018-10-05T15:25:00.204Z,18.60
2018-10-05T15:29:56.761Z,18.50
2018-10-05T15:32:25.594Z,18.50
2018-10-05T15:34:54.525Z,18.40
2018-10-05T15:37:22.955Z,18.30
2018-10-05T15:42:20.037Z,18.10
2018-10-05T15:44:48.789Z,18.00
2018-10-05T15:47:17.886Z,18.00
2018-10-05T15:49:47.051Z,17.90
2018-10-05T15:52:16.026Z,17.90
2018-10-05T15:54:44.828Z,17.80
2018-10-05T15:57:13.238Z,17.80
2018-10-05T15:59:41.760Z,17.70
2018-10-05T16:02:10.521Z,17.50
2018-10-05T16:07:07.644Z,17.30
2018-10-05T16:09:36.973Z,17.10
2018-10-05T16:12:05.760Z,17.00
2018-10-05T16:14:34.536Z,16.90
2018-10-05T16:17:03.005Z,16.80
2018-10-05T16:19:31.975Z,16.70
2018-10-05T16:22:00.421Z,16.60
2018-10-05T16:24:38.436Z,16.50
2018-10-05T16:27:07.365Z,16.40
2018-10-05T16:29:36.170Z,16.30
2018-10-05T16:32:05.776Z,16.30
2018-10-05T16:34:34.509Z,16.20
2018-10-05T16:37:03.315Z,16.10
2018-10-05T16:39:32.128Z,15.90
2018-10-05T16:42:00.640Z,15.80
2018-10-05T16:46:57.273Z,15.60
2018-10-05T16:49:26.188Z,15.50
2018-10-05T16:51:54.629Z,15.30
2018-10-05T16:54:23.033Z,15.20
2018-10-05T16:56:51.617Z,15.10
2018-10-05T16:59:20.049Z,15.00
2018-10-05T17:01:48.572Z,14.90
2018-10-05T17:06:45.561Z,14.70
2018-10-05T17:09:14.852Z,14.60
2018-10-05T17:11:44.602Z,14.50
2018-10-05T17:16:41.413Z,14.40
2018-10-05T17:19:09.907Z,14.40
2018-10-05T17:21:38.325Z,14.30
2018-10-05T17:24:06.821Z,14.20
2018-10-05T17:26:35.260Z,14.10
2018-10-05T17:34:00.628Z,14.00
2018-10-05T17:36:29.749Z,14.00
2018-10-05T17:38:58.764Z,14.00
2018-10-05T17:41:27.214Z,14.00
2018-10-05T17:43:56.140Z,14.00
2018-10-05T17:46:24.619Z,14.00
2018-10-05T17:48:53.704Z,14.00
2018-10-05T17:51:22.507Z,13.90
2018-10-05T17:53:51.083Z,13.70
2018-10-05T17:56:19.510Z,13.60
2018-10-05T17:58:48.022Z,13.50
2018-10-05T18:01:16.554Z,13.40
2018-10-05T18:03:44.967Z,13.30
2018-10-05T18:06:13.428Z,13.30
2018-10-05T18:11:10.141Z,13.20
2018-10-05T18:13:39.170Z,13.20
2018-10-05T18:16:07.581Z,13.20
2018-10-05T18:18:36.460Z,13.10
2018-10-05T18:21:04.898Z,13.10
2018-10-05T18:23:33.886Z,13.10
2018-10-05T18:28:31.243Z,12.90
2018-10-05T18:31:00.768Z,12.90
2018-10-05T18:33:29.223Z,12.90
2018-10-05T18:35:57.728Z,12.80
2018-10-05T18:40:54.513Z,12.70
2018-10-05T18:43:22.925Z,12.60
2018-10-05T18:45:51.317Z,12.60
2018-10-05T18:48:19.773Z,12.60
2018-10-05T18:50:48.214Z,12.50
2018-10-05T18:53:16.646Z,12.50
2018-10-05T18:58:13.182Z,12.40
2018-10-05T19:00:41.590Z,12.30
2018-10-05T19:03:10.072Z,12.30
2018-10-05T19:05:38.476Z,12.20
2018-10-05T19:08:06.957Z,12.20
2018-10-05T19:10:35.357Z,12.10
2018-10-05T19:13:03.802Z,12.20
2018-10-05T19:15:32.213Z,12.20
2018-10-05T19:18:00.705Z,12.20
2018-10-05T19:20:29.126Z,12.20
2018-10-05T19:22:57.648Z,12.10
2018-10-05T19:25:26.045Z,12.00
2018-10-05T19:27:54.469Z,11.90
2018-10-05T19:32:50.968Z,11.80
2018-10-05T19:37:47.572Z,11.80
2018-10-05T19:40:16.001Z,11.70
2018-10-05T19:42:44.460Z,11.70
2018-10-05T19:45:13.156Z,11.70
2018-10-05T19:47:41.640Z,11.60
2018-10-05T19:50:10.049Z,11.60
2018-10-05T19:52:38.544Z,11.50
2018-10-05T19:55:07.021Z,11.50
2018-10-05T20:00:03.909Z,11.50
2018-10-05T20:02:32.295Z,11.50
2018-10-05T20:05:00.732Z,11.40
2018-10-05T20:07:29.424Z,11.40
2018-10-05T20:09:57.909Z,11.40
2018-10-05T20:12:26.262Z,11.30
2018-10-05T20:14:54.824Z,11.20
2018-10-05T20:17:23.308Z,11.20
2018-10-05T20:22:20.717Z,11.20
2018-10-05T20:27:17.309Z,11.10
2018-10-05T20:29:45.741Z,11.10
2018-10-05T20:35:41.133Z,11.00
2018-10-05T20:38:09.562Z,10.90
2018-10-05T20:40:37.995Z,10.80
2018-10-05T20:45:34.554Z,10.70
2018-10-05T20:50:31.249Z,10.60
2018-10-05T20:52:59.712Z,10.60
2018-10-05T20:55:28.157Z,10.60
2018-10-05T20:57:56.695Z,10.50
2018-10-05T21:00:25.156Z,10.50
2018-10-05T21:02:53.560Z,10.50
2018-10-05T21:05:22.104Z,10.50
2018-10-05T21:07:50.780Z,10.50
2018-10-05T21:10:19.233Z,10.40
2018-10-05T21:12:47.737Z,10.40
2018-10-05T21:15:16.271Z,10.30
2018-10-05T21:17:44.633Z,10.20
2018-10-05T21:22:41.228Z,10.20
2018-10-05T21:27:51.065Z,10.30
2018-10-05T21:32:47.673Z,10.20
2018-10-05T21:35:16.625Z,10.10
2018-10-05T21:37:45.392Z,10.10
2018-10-05T21:45:14.004Z,10.10
2018-10-05T21:52:38.765Z,10.00
2018-10-05T21:55:07.206Z,10.00
2018-10-05T21:57:35.643Z,10.00
2018-10-05T22:00:05.013Z,9.90
2018-10-05T22:02:36.217Z,9.90
2018-10-05T22:07:34.190Z,9.90
2018-10-05T22:10:02.666Z,9.90
2018-10-05T22:12:31.456Z,9.80
2018-10-05T22:14:59.933Z,9.80
2018-10-05T22:17:28.617Z,9.80
2018-10-05T22:19:57.162Z,9.80
2018-10-05T22:22:25.696Z,9.80
2018-10-05T22:24:54.138Z,9.80
2018-10-05T22:27:22.629Z,9.70
2018-10-05T22:29:51.033Z,9.70
2018-10-05T22:32:19.449Z,9.70
2018-10-05T22:34:47.829Z,9.60
2018-10-05T22:37:16.266Z,9.60
2018-10-05T22:39:44.763Z,9.60
2018-10-05T22:44:41.272Z,9.40
2018-10-05T22:47:09.756Z,9.40
2018-10-05T22:49:38.144Z,9.50
2018-10-05T22:52:07.224Z,9.40
2018-10-05T22:54:35.646Z,9.40
2018-10-05T22:57:04.177Z,9.40
2018-10-05T22:59:32.582Z,9.30
2018-10-05T23:02:01.001Z,9.20
2018-10-05T23:04:29.388Z,9.10
2018-10-05T23:06:57.823Z,9.10
2018-10-05T23:11:54.468Z,9.10
2018-10-05T23:14:22.852Z,9.10
2018-10-05T23:16:51.267Z,9.10
2018-10-05T23:19:19.750Z,9.20
2018-10-05T23:21:48.186Z,9.20
2018-10-05T23:24:16.656Z,9.20
2018-10-05T23:26:45.141Z,9.20
2018-10-05T23:29:13.541Z,9.10
2018-10-05T23:31:41.949Z,9.10
2018-10-05T23:34:10.333Z,9.00
2018-10-05T23:39:08.591Z,9.00
2018-10-05T23:41:37.009Z,8.90
2018-10-05T23:44:05.416Z,8.90
2018-10-05T23:46:33.884Z,8.80
2018-10-05T23:49:02.432Z,8.80
2018-10-05T23:51:30.877Z,8.70
2018-10-05T23:53:59.278Z,8.70
2018-10-05T23:56:27.721Z,8.70
2018-10-05T23:58:56.524Z,8.70
